createdAt,value
2023-01-19T00:00:18.007Z,6.22
2023-01-19T00:03:21.591Z,5.97
2023-01-19T00:06:24.650Z,6.07
2023-01-19T00:09:33.298Z,6.15
2023-01-19T00:12:36.370Z,5.40
2023-01-19T00:15:40.509Z,5.57
2023-01-19T00:18:43.315Z,5.50
2023-01-19T00:21:46.192Z,5.78
2023-01-19T00:24:49.031Z,5.13
2023-01-19T00:27:51.798Z,5.65
2023-01-19T00:30:56.033Z,5.10
2023-01-19T00:33:58.884Z,5.30
2023-01-19T00:37:03.062Z,5.22
2023-01-19T00:40:07.495Z,5.70
2023-01-19T00:43:10.389Z,5.07
2023-01-19T00:46:14.984Z,5.15
2023-01-19T00:49:18.635Z,5.20
2023-01-19T00:52:21.503Z,5.05
2023-01-19T00:55:24.877Z,4.63
2023-01-19T00:58:27.673Z,4.78
2023-01-19T01:01:45.056Z,5.38
2023-01-19T01:04:54.651Z,4.70
2023-01-19T01:07:57.922Z,4.93
2023-01-19T01:11:00.786Z,4.57
2023-01-19T01:14:03.625Z,5.00
2023-01-19T01:17:11.282Z,4.28
2023-01-19T01:20:17.895Z,4.82
2023-01-19T01:23:22.672Z,4.80
2023-01-19T01:26:27.112Z,4.65
2023-01-19T01:29:30.651Z,4.75
2023-01-19T01:32:34.891Z,4.82
2023-01-19T01:35:37.716Z,4.28
2023-01-19T01:38:40.798Z,4.88
2023-01-19T01:41:43.591Z,4.60
2023-01-19T01:44:52.744Z,4.25
2023-01-19T01:48:02.331Z,4.40
2023-01-19T01:51:25.395Z,4.32
2023-01-19T01:54:30.478Z,4.70
2023-01-19T01:57:34.011Z,4.32
2023-01-19T02:00:51.788Z,4.30
2023-01-19T02:03:58.510Z,4.55
2023-01-19T02:07:18.485Z,4.20
2023-01-19T02:10:40.771Z,3.97
2023-01-19T02:13:45.238Z,4.30
2023-01-19T02:16:48.722Z,4.20
2023-01-19T02:19:53.940Z,3.67
2023-01-19T02:23:01.669Z,4.20
2023-01-19T02:26:09.529Z,4.43
2023-01-19T02:29:14.381Z,4.28
2023-01-19T02:32:17.356Z,4.00
2023-01-19T02:35:21.368Z,4.20
2023-01-19T02:38:27.914Z,4.20
2023-01-19T02:41:35.783Z,3.78
2023-01-19T02:44:41.063Z,4.30
2023-01-19T02:47:46.259Z,3.75
2023-01-19T02:50:53.081Z,4.28
2023-01-19T02:54:23.334Z,4.03
2023-01-19T02:57:39.950Z,3.72
2023-01-19T03:00:52.989Z,4.00
2023-01-19T03:04:00.923Z,3.88
2023-01-19T03:07:10.389Z,3.83
2023-01-19T03:10:22.223Z,3.88
2023-01-19T03:13:34.889Z,3.70
2023-01-19T03:16:42.374Z,3.85
2023-01-19T03:19:49.244Z,3.80
2023-01-19T03:22:59.226Z,3.70
2023-01-19T03:26:05.241Z,4.03
2023-01-19T03:29:13.185Z,3.67
2023-01-19T03:32:19.058Z,3.33
2023-01-19T03:35:25.237Z,3.97
2023-01-19T03:38:28.584Z,3.58
2023-01-19T03:41:34.268Z,4.30
2023-01-19T03:44:40.674Z,3.67
2023-01-19T03:47:43.575Z,3.78
2023-01-19T03:50:46.691Z,3.67
2023-01-19T03:53:50.569Z,3.75
2023-01-19T03:56:54.034Z,3.50
2023-01-19T03:59:58.255Z,3.70
2023-01-19T04:03:01.486Z,3.70
2023-01-19T04:06:04.749Z,3.90
2023-01-19T04:09:08.156Z,3.97
2023-01-19T04:12:11.084Z,3.90
2023-01-19T04:15:15.614Z,4.18
2023-01-19T04:18:18.398Z,3.50
2023-01-19T04:21:21.316Z,3.95
2023-01-19T04:24:24.173Z,3.50
2023-01-19T04:27:27.075Z,3.70
2023-01-19T04:30:31.264Z,3.50
2023-01-19T04:33:35.006Z,3.58
2023-01-19T04:36:37.830Z,3.83
2023-01-19T04:39:40.792Z,3.45
2023-01-19T04:42:45.343Z,3.53
2023-01-19T04:45:49.958Z,3.40
2023-01-19T04:48:52.751Z,3.72
2023-01-19T04:51:55.612Z,3.63
2023-01-19T04:54:58.437Z,3.40
2023-01-19T04:58:01.620Z,3.05
2023-01-19T05:01:10.104Z,3.65
2023-01-19T05:04:13.010Z,3.30
2023-01-19T05:07:15.984Z,3.97
2023-01-19T05:10:18.969Z,3.10
2023-01-19T05:13:22.085Z,3.30
2023-01-19T05:16:26.424Z,3.20
2023-01-19T05:19:29.252Z,3.88
2023-01-19T05:22:32.638Z,3.20
2023-01-19T05:25:35.713Z,3.38
2023-01-19T05:28:39.083Z,3.33
2023-01-19T05:31:43.452Z,3.25
2023-01-19T05:34:46.429Z,3.22
2023-01-19T05:37:49.882Z,3.55
2023-01-19T05:40:58.146Z,3.00
2023-01-19T05:44:00.930Z,3.35
2023-01-19T05:47:05.280Z,3.50
2023-01-19T05:50:08.860Z,3.47
2023-01-19T05:53:12.102Z,3.15
2023-01-19T05:56:14.895Z,3.15
2023-01-19T05:59:23.978Z,3.38
2023-01-19T06:02:30.144Z,3.30
2023-01-19T06:05:33.230Z,3.75
2023-01-19T06:08:36.088Z,3.50
2023-01-19T06:11:38.869Z,3.40
2023-01-19T06:14:41.748Z,3.53
2023-01-19T06:17:45.930Z,3.13
2023-01-19T06:20:49.106Z,3.13
2023-01-19T06:23:51.972Z,3.25
2023-01-19T06:26:55.298Z,3.30
2023-01-19T06:29:58.136Z,3.40
2023-01-19T06:33:02.678Z,3.22
2023-01-19T06:36:06.461Z,3.10
2023-01-19T06:39:10.651Z,3.17
2023-01-19T06:42:13.643Z,3.40
2023-01-19T06:45:16.625Z,3.28
2023-01-19T06:48:21.219Z,3.47
2023-01-19T06:51:25.525Z,3.15
2023-01-19T06:54:28.372Z,3.20
2023-01-19T06:57:31.230Z,3.30
2023-01-19T07:00:34.039Z,3.10
2023-01-19T07:03:38.624Z,3.60
2023-01-19T07:06:42.671Z,3.03
2023-01-19T07:09:45.593Z,3.55
2023-01-19T07:12:48.675Z,3.55
2023-01-19T07:15:51.637Z,3.20
2023-01-19T07:18:55.999Z,3.70
2023-01-19T07:21:59.137Z,3.63
2023-01-19T07:25:02.029Z,3.38
2023-01-19T07:28:05.006Z,3.65
2023-01-19T07:31:08.938Z,3.50
2023-01-19T07:34:13.148Z,3.30
2023-01-19T07:37:16.224Z,3.60
2023-01-19T07:40:19.308Z,3.30
2023-01-19T07:43:22.154Z,3.40
2023-01-19T07:46:25.139Z,3.35
2023-01-19T07:49:29.474Z,3.60
2023-01-19T07:52:32.334Z,19.23
2023-01-19T07:55:35.190Z,11.18
2023-01-19T07:58:38.511Z,9.20
2023-01-19T08:01:41.932Z,8.88
2023-01-19T08:04:48.932Z,8.90
2023-01-19T08:07:54.182Z,9.13
2023-01-19T08:10:57.176Z,8.25
2023-01-19T08:14:00.827Z,7.78
2023-01-19T08:17:04.858Z,7.72
2023-01-19T08:20:11.248Z,7.13
2023-01-19T08:23:14.104Z,7.20
2023-01-19T08:26:20.769Z,7.07
2023-01-19T08:29:23.770Z,6.60
2023-01-19T08:32:27.170Z,6.32
2023-01-19T08:35:31.498Z,6.65
2023-01-19T08:38:34.385Z,7.10
2023-01-19T08:41:37.330Z,6.55
2023-01-19T08:44:49.678Z,6.53
2023-01-19T08:48:00.150Z,6.38
2023-01-19T08:51:04.614Z,7.07
2023-01-19T08:54:07.519Z,6.47
2023-01-19T08:57:10.446Z,5.63
2023-01-19T09:00:14.561Z,5.65
2023-01-19T09:03:17.499Z,6.68
2023-01-19T09:06:21.868Z,5.97
2023-01-19T09:09:24.754Z,6.03
2023-01-19T09:12:27.721Z,6.20
2023-01-19T09:15:30.564Z,6.15
2023-01-19T09:18:33.645Z,6.05
2023-01-19T09:21:37.834Z,6.00
2023-01-19T09:24:40.812Z,6.90
2023-01-19T09:27:43.749Z,6.43
2023-01-19T09:30:46.948Z,5.80
2023-01-19T09:33:49.939Z,5.75
2023-01-19T09:36:54.200Z,5.80
2023-01-19T09:39:57.091Z,6.20
2023-01-19T09:43:12.965Z,6.15
2023-01-19T09:46:20.256Z,6.47
2023-01-19T09:49:32.696Z,6.78
2023-01-19T09:52:43.020Z,6.35
2023-01-19T09:55:46.024Z,6.40
2023-01-19T09:58:50.947Z,6.35
2023-01-19T10:02:07.716Z,5.95
2023-01-19T10:05:26.104Z,5.95
2023-01-19T10:08:38.814Z,6.20
2023-01-19T10:11:52.877Z,5.80
2023-01-19T10:15:04.754Z,5.70
2023-01-19T10:18:18.297Z,5.88
2023-01-19T10:21:24.235Z,5.63
2023-01-19T10:24:33.596Z,5.40
2023-01-19T10:27:37.590Z,5.93
2023-01-19T10:30:43.671Z,6.05
2023-01-19T10:33:46.688Z,6.32
2023-01-19T10:36:51.548Z,5.65
2023-01-19T10:39:58.209Z,6.63
2023-01-19T10:43:02.035Z,5.95
2023-01-19T10:46:07.537Z,6.00
2023-01-19T10:49:25.591Z,5.43
2023-01-19T10:52:32.810Z,5.78
2023-01-19T10:55:38.754Z,5.90
2023-01-19T10:58:41.796Z,5.15
2023-01-19T11:01:44.838Z,5.90
2023-01-19T11:04:50.199Z,5.45
2023-01-19T11:07:53.280Z,5.60
2023-01-19T11:11:04.353Z,6.43
2023-01-19T11:14:12.487Z,5.05
2023-01-19T11:17:21.694Z,5.75
2023-01-19T11:20:27.171Z,5.43
2023-01-19T11:23:32.591Z,5.68
2023-01-19T11:26:43.134Z,5.38
2023-01-19T11:29:49.495Z,5.40
2023-01-19T11:32:52.677Z,5.43
2023-01-19T11:36:04.694Z,5.03
2023-01-19T11:39:23.646Z,5.28
2023-01-19T11:42:31.182Z,5.75
2023-01-19T11:45:36.140Z,4.60
2023-01-19T11:48:43.653Z,5.95
2023-01-19T11:51:56.453Z,5.22
2023-01-19T11:55:04.924Z,5.38
2023-01-19T11:58:16.075Z,5.47
2023-01-19T12:01:24.765Z,5.05
2023-01-19T12:04:31.601Z,5.03
2023-01-19T12:07:37.455Z,5.20
2023-01-19T12:10:45.933Z,5.82
2023-01-19T12:13:52.467Z,5.13
2023-01-19T12:17:00.174Z,5.07
2023-01-19T12:20:14.061Z,5.10
2023-01-19T12:23:36.068Z,5.40
2023-01-19T12:26:44.090Z,5.30
2023-01-19T12:29:48.970Z,5.25
2023-01-19T12:32:52.323Z,5.20
2023-01-19T12:35:57.522Z,5.30
2023-01-19T12:39:03.955Z,5.00
2023-01-19T12:42:13.722Z,5.93
2023-01-19T12:45:22.996Z,5.80
2023-01-19T12:48:27.681Z,5.28
2023-01-19T12:51:30.713Z,5.30
2023-01-19T12:54:34.043Z,6.47
2023-01-19T12:57:40.089Z,6.85
2023-01-19T13:00:46.285Z,7.18
2023-01-19T13:04:06.687Z,6.00
2023-01-19T13:07:17.872Z,6.57
2023-01-19T13:10:55.832Z,5.75
2023-01-19T13:14:34.742Z,6.18
2023-01-19T13:17:49.931Z,4.70
2023-01-19T13:20:58.147Z,6.05
2023-01-19T13:24:02.763Z,5.80
2023-01-19T13:27:05.922Z,6.05
2023-01-19T13:30:16.921Z,6.18
2023-01-19T13:33:24.298Z,7.03
2023-01-19T13:36:31.613Z,6.60
2023-01-19T13:39:37.915Z,5.65
2023-01-19T13:42:42.658Z,6.22
2023-01-19T13:45:51.756Z,5.88
2023-01-19T13:49:00.885Z,5.43
2023-01-19T13:52:12.752Z,5.60
2023-01-19T13:55:16.796Z,5.40
2023-01-19T13:58:22.233Z,5.43
2023-01-19T14:01:28.903Z,5.97
2023-01-19T14:04:34.900Z,6.35
2023-01-19T14:07:37.835Z,6.68
2023-01-19T14:10:42.895Z,6.95
2023-01-19T14:13:45.809Z,5.95
2023-01-19T14:16:48.670Z,5.78
2023-01-19T14:19:54.467Z,5.35
2023-01-19T14:22:57.357Z,5.28
2023-01-19T14:26:00.204Z,5.53
2023-01-19T14:29:15.427Z,5.80
2023-01-19T14:32:20.477Z,5.93
2023-01-19T14:35:26.279Z,5.30
2023-01-19T14:38:29.123Z,5.88
2023-01-19T14:41:39.610Z,5.57
2023-01-19T14:44:48.058Z,6.78
2023-01-19T14:47:58.153Z,6.18
2023-01-19T14:51:05.423Z,6.07
2023-01-19T14:54:18.286Z,6.13
2023-01-19T14:57:21.071Z,5.82
2023-01-19T15:00:24.678Z,5.90
2023-01-19T15:03:43.630Z,5.68
2023-01-19T15:06:49.718Z,5.30
2023-01-19T15:09:52.830Z,6.22
2023-01-19T15:12:56.761Z,6.50
2023-01-19T15:15:59.691Z,6.57
2023-01-19T15:19:02.611Z,6.15
2023-01-19T15:22:12.426Z,6.40
2023-01-19T15:25:16.779Z,5.72
2023-01-19T15:28:20.926Z,5.93
2023-01-19T15:31:26.633Z,5.78
2023-01-19T15:34:29.537Z,5.88
2023-01-19T15:37:33.763Z,5.97
2023-01-19T15:40:36.640Z,6.10
2023-01-19T15:43:39.501Z,5.72
2023-01-19T15:46:42.295Z,5.75
2023-01-19T15:49:45.197Z,5.65
2023-01-19T15:52:49.514Z,6.05
2023-01-19T15:55:55.325Z,5.68
2023-01-19T15:58:59.144Z,5.75
2023-01-19T16:02:02.516Z,5.68
2023-01-19T16:05:06.421Z,5.10
2023-01-19T16:08:11.010Z,6.05
2023-01-19T16:11:18.423Z,5.03
2023-01-19T16:14:21.443Z,5.70
2023-01-19T16:17:24.540Z,5.30
2023-01-19T16:20:27.886Z,5.00
2023-01-19T16:23:47.564Z,5.18
2023-01-19T16:26:50.489Z,5.45
2023-01-19T16:29:53.649Z,4.93
2023-01-19T16:32:56.531Z,5.65
2023-01-19T16:35:59.388Z,5.43
2023-01-19T16:39:06.773Z,5.50
2023-01-19T16:42:09.766Z,5.30
2023-01-19T16:45:12.692Z,5.40
2023-01-19T16:48:15.543Z,4.90
2023-01-19T16:51:18.839Z,5.45
2023-01-19T16:54:25.979Z,4.82
2023-01-19T16:57:29.952Z,5.20
2023-01-19T17:00:32.831Z,5.32
2023-01-19T17:03:35.759Z,5.28
2023-01-19T17:06:39.186Z,5.30
2023-01-19T17:09:43.446Z,5.18
2023-01-19T17:12:46.367Z,4.97
2023-01-19T17:15:49.178Z,4.80
2023-01-19T17:18:52.772Z,5.15
2023-01-19T17:21:55.647Z,5.07
2023-01-19T17:24:59.903Z,4.72
2023-01-19T17:28:02.759Z,4.82
2023-01-19T17:31:07.237Z,5.10
2023-01-19T17:34:10.711Z,4.90
2023-01-19T17:37:13.650Z,5.18
2023-01-19T17:40:18.302Z,7.35
2023-01-19T17:43:21.167Z,7.45
2023-01-19T17:46:25.676Z,6.43
2023-01-19T17:49:28.700Z,5.40
2023-01-19T17:52:31.666Z,5.78
2023-01-19T17:55:35.949Z,5.93
2023-01-19T17:58:39.163Z,5.07
2023-01-19T18:01:42.918Z,5.80
2023-01-19T18:04:45.975Z,5.90
2023-01-19T18:07:48.869Z,5.47
2023-01-19T18:10:56.604Z,5.78
2023-01-19T18:14:00.182Z,5.22
2023-01-19T18:17:03.086Z,5.50
2023-01-19T18:20:06.904Z,6.13
2023-01-19T18:23:09.797Z,6.07
2023-01-19T18:26:15.598Z,6.40
2023-01-19T18:29:19.298Z,6.03
2023-01-19T18:32:22.274Z,7.05
2023-01-19T18:35:25.191Z,6.18
2023-01-19T18:38:28.320Z,5.50
2023-01-19T18:41:34.131Z,6.18
2023-01-19T18:44:37.196Z,5.97
2023-01-19T18:47:40.090Z,6.70
2023-01-19T18:50:43.928Z,7.65
2023-01-19T18:53:47.315Z,8.88
2023-01-19T18:56:52.132Z,6.93
2023-01-19T18:59:54.999Z,6.03
2023-01-19T19:02:58.467Z,6.10
2023-01-19T19:06:03.670Z,7.07
2023-01-19T19:09:06.807Z,6.88
2023-01-19T19:12:11.178Z,6.60
2023-01-19T19:15:14.276Z,7.57
2023-01-19T19:18:17.084Z,6.97
2023-01-19T19:21:24.040Z,6.68
2023-01-19T19:24:27.121Z,7.07
2023-01-19T19:27:31.365Z,10.25
2023-01-19T19:30:37.760Z,6.47
2023-01-19T19:33:41.216Z,6.50
2023-01-19T19:36:45.713Z,6.57
2023-01-19T19:39:49.271Z,7.88
2023-01-19T19:42:53.531Z,7.38
2023-01-19T19:46:00.189Z,8.60
2023-01-19T19:49:03.164Z,7.40
2023-01-19T19:52:06.649Z,7.10
2023-01-19T19:55:12.652Z,6.75
2023-01-19T19:58:17.067Z,6.85
2023-01-19T20:01:24.003Z,8.32
2023-01-19T20:04:28.306Z,8.68
2023-01-19T20:07:31.359Z,9.00
2023-01-19T20:10:37.437Z,8.35
2023-01-19T20:13:43.355Z,8.35
2023-01-19T20:16:46.270Z,7.55
2023-01-19T20:19:49.335Z,7.15
2023-01-19T20:22:52.898Z,7.82
2023-01-19T20:25:55.703Z,7.75
2023-01-19T20:29:02.847Z,8.10
2023-01-19T20:32:05.989Z,8.38
2023-01-19T20:35:08.917Z,8.93
2023-01-19T20:38:11.770Z,10.30
2023-01-19T20:41:14.881Z,9.90
2023-01-19T20:44:22.321Z,8.32
2023-01-19T20:47:25.896Z,9.32
2023-01-19T20:50:28.735Z,8.90
2023-01-19T20:53:32.539Z,8.13
2023-01-19T20:56:35.394Z,8.27
2023-01-19T20:59:40.956Z,8.32
2023-01-19T21:02:43.961Z,8.40
2023-01-19T21:05:47.680Z,8.52
2023-01-19T21:08:50.700Z,8.50
2023-01-19T21:11:56.526Z,9.23
2023-01-19T21:15:01.635Z,8.20
2023-01-19T21:18:04.933Z,8.70
2023-01-19T21:21:10.690Z,7.90
2023-01-19T21:24:17.993Z,8.50
2023-01-19T21:27:21.198Z,9.15
2023-01-19T21:30:25.434Z,7.90
2023-01-19T21:33:28.306Z,7.68
2023-01-19T21:36:31.198Z,8.00
2023-01-19T21:39:34.106Z,7.47
2023-01-19T21:42:37.004Z,7.63
2023-01-19T21:45:43.093Z,7.40
2023-01-19T21:48:46.833Z,7.40
2023-01-19T21:51:50.666Z,7.38
2023-01-19T21:54:53.530Z,7.47
2023-01-19T21:57:56.390Z,7.13
2023-01-19T22:01:05.429Z,7.18
2023-01-19T22:04:08.434Z,7.22
2023-01-19T22:07:11.323Z,7.40
2023-01-19T22:10:14.135Z,7.43
2023-01-19T22:13:17.430Z,6.43
2023-01-19T22:16:23.178Z,6.85
2023-01-19T22:19:26.014Z,6.45
2023-01-19T22:22:28.906Z,7.07
2023-01-19T22:25:33.935Z,6.55
2023-01-19T22:28:37.365Z,6.55
2023-01-19T22:31:41.564Z,6.88
2023-01-19T22:34:44.448Z,6.95
2023-01-19T22:37:47.294Z,6.50
2023-01-19T22:40:50.156Z,6.45
2023-01-19T22:43:55.755Z,6.85
2023-01-19T22:46:59.941Z,6.68
2023-01-19T22:50:02.793Z,6.28
2023-01-19T22:53:05.660Z,6.47
2023-01-19T22:56:12.977Z,6.30
2023-01-19T22:59:15.878Z,6.28
2023-01-19T23:02:21.010Z,6.05
2023-01-19T23:05:24.098Z,6.05
2023-01-19T23:08:26.972Z,6.50
2023-01-19T23:11:35.551Z,6.35
2023-01-19T23:14:38.747Z,6.00
2023-01-19T23:17:44.710Z,6.40
2023-01-19T23:20:47.604Z,5.80
2023-01-19T23:23:53.626Z,5.68
2023-01-19T23:26:56.477Z,5.75
2023-01-19T23:29:59.331Z,5.90
2023-01-19T23:33:03.578Z,5.70
2023-01-19T23:36:07.202Z,5.95
2023-01-19T23:39:17.481Z,5.60
2023-01-19T23:42:20.298Z,5.20
2023-01-19T23:45:23.129Z,5.82
2023-01-19T23:48:27.429Z,6.20
2023-01-19T23:51:32.343Z,5.88
2023-01-19T23:54:35.501Z,5.97
2023-01-19T23:57:38.273Z,5.82
